sensor_id;sensor_type;location;lat;lon;timestamp;pressure;altitude;pressure_sealevel;temperature;humidity
28797;BME280;24974;54.444;18.560;2023-05-07T00:01:12;102243.47;;;9.85;nan
28797;BME280;24974;54.444;18.560;2023-05-07T00:03:42;102230.78;;;9.73;nan
28797;BME280;24974;54.444;18.560;2023-05-07T00:06:14;102237.41;;;10.30;nan
28797;BME280;24974;54.444;18.560;2023-05-07T00:08:45;102242.13;;;10.55;nan
28797;BME280;24974;54.444;18.560;2023-05-07T00:11:16;102237.41;;;10.40;nan
28797;BME280;24974;54.444;18.560;2023-05-07T00:13:47;102244.78;;;10.24;nan
28797;BME280;24974;54.444;18.560;2023-05-07T00:16:18;102244.25;;;10.27;nan
28797;BME280;24974;54.444;18.560;2023-05-07T00:18:49;102239.06;;;10.41;nan
28797;BME280;24974;54.444;18.560;2023-05-07T00:21:20;102245.09;;;10.33;nan
28797;BME280;24974;54.444;18.560;2023-05-07T00:23:53;102243.97;;;9.76;nan
28797;BME280;24974;54.444;18.560;2023-05-07T00:26:24;102244.44;;;10.11;nan
28797;BME280;24974;54.444;18.560;2023-05-07T00:28:55;102238.56;;;9.92;nan
28797;BME280;24974;54.444;18.560;2023-05-07T00:31:26;102246.34;;;10.05;nan
28797;BME280;24974;54.444;18.560;2023-05-07T00:33:57;102251.00;;;10.09;nan
28797;BME280;24974;54.444;18.560;2023-05-07T00:36:28;102252.34;;;9.97;nan
28797;BME280;24974;54.444;18.560;2023-05-07T00:39:00;102257.78;;;9.87;nan
28797;BME280;24974;54.444;18.560;2023-05-07T00:41:33;102258.19;;;9.63;nan
28797;BME280;24974;54.444;18.560;2023-05-07T00:44:05;102259.06;;;9.74;nan
28797;BME280;24974;54.444;18.560;2023-05-07T00:46:36;102261.19;;;9.62;nan
28797;BME280;24974;54.444;18.560;2023-05-07T00:49:07;102260.19;;;9.78;nan
28797;BME280;24974;54.444;18.560;2023-05-07T00:51:37;102260.34;;;10.08;nan
28797;BME280;24974;54.444;18.560;2023-05-07T00:54:08;102255.63;;;9.14;nan
28797;BME280;24974;54.444;18.560;2023-05-07T00:56:39;102261.81;;;8.73;nan
28797;BME280;24974;54.444;18.560;2023-05-07T04:59:36;102398.78;;;12.45;nan
28797;BME280;24974;54.444;18.560;2023-05-07T05:02:07;102402.78;;;12.78;nan
28797;BME280;24974;54.444;18.560;2023-05-07T05:04:38;102395.22;;;13.04;nan
28797;BME280;24974;54.444;18.560;2023-05-07T05:07:10;102401.66;;;12.84;nan
28797;BME280;24974;54.444;18.560;2023-05-07T05:09:41;102397.81;;;12.75;nan
28797;BME280;24974;54.444;18.560;2023-05-07T05:12:12;102397.13;;;12.44;nan
28797;BME280;24974;54.444;18.560;2023-05-07T05:14:43;102398.22;;;12.43;nan
28797;BME280;24974;54.444;18.560;2023-05-07T05:17:14;102404.19;;;12.70;nan
28797;BME280;24974;54.444;18.560;2023-05-07T05:19:45;102404.97;;;12.81;nan
28797;BME280;24974;54.444;18.560;2023-05-07T05:22:16;102405.19;;;12.95;nan
28797;BME280;24974;54.444;18.560;2023-05-07T05:24:46;102410.41;;;13.01;nan
28797;BME280;24974;54.444;18.560;2023-05-07T05:27:17;102406.75;;;12.51;nan
28797;BME280;24974;54.444;18.560;2023-05-07T05:29:48;102407.66;;;12.96;nan
28797;BME280;24974;54.444;18.560;2023-05-07T05:32:19;102425.50;;;13.24;nan
28797;BME280;24974;54.444;18.560;2023-05-07T05:34:50;102424.56;;;12.79;nan
28797;BME280;24974;54.444;18.560;2023-05-07T05:37:21;102426.53;;;12.74;nan
28797;BME280;24974;54.444;18.560;2023-05-07T05:39:53;102417.94;;;13.40;nan
28797;BME280;24974;54.444;18.560;2023-05-07T05:42:25;102424.13;;;13.16;nan
28797;BME280;24974;54.444;18.560;2023-05-07T05:44:56;102434.66;;;12.29;nan
28797;BME280;24974;54.444;18.560;2023-05-07T05:47:29;102429.31;;;13.73;nan
28797;BME280;24974;54.444;18.560;2023-05-07T05:50:00;102436.31;;;13.05;nan
28797;BME280;24974;54.444;18.560;2023-05-07T05:52:31;102433.50;;;13.26;nan
28797;BME280;24974;54.444;18.560;2023-05-07T05:55:03;102434.75;;;13.43;nan
28797;BME280;24974;54.444;18.560;2023-05-07T05:57:33;102426.88;;;13.66;nan
28797;BME280;24974;54.444;18.560;2023-05-07T06:00:06;102428.69;;;13.81;nan
28797;BME280;24974;54.444;18.560;2023-05-07T06:02:49;102435.28;;;12.91;nan
28797;BME280;24974;54.444;18.560;2023-05-07T06:05:27;102439.78;;;13.36;nan
28797;BME280;24974;54.444;18.560;2023-05-07T06:08:00;102439.56;;;13.67;nan
28797;BME280;24974;54.444;18.560;2023-05-07T06:10:36;102436.28;;;13.15;nan
28797;BME280;24974;54.444;18.560;2023-05-07T06:13:10;102437.16;;;13.55;nan
28797;BME280;24974;54.444;18.560;2023-05-07T06:15:42;102439.06;;;13.60;nan
28797;BME280;24974;54.444;18.560;2023-05-07T06:18:16;102444.28;;;13.61;nan
28797;BME280;24974;54.444;18.560;2023-05-07T06:20:47;102446.38;;;13.40;nan
28797;BME280;24974;54.444;18.560;2023-05-07T06:23:26;102446.13;;;13.37;nan
28797;BME280;24974;54.444;18.560;2023-05-07T06:25:57;102444.41;;;12.92;nan
28797;BME280;24974;54.444;18.560;2023-05-07T06:28:34;102453.47;;;13.52;nan
28797;BME280;24974;54.444;18.560;2023-05-07T06:31:13;102449.78;;;13.22;nan
28797;BME280;24974;54.444;18.560;2023-05-07T06:33:46;102460.75;;;13.37;nan
28797;BME280;24974;54.444;18.560;2023-05-07T06:36:18;102457.75;;;13.73;nan
28797;BME280;24974;54.444;18.560;2023-05-07T06:38:49;102458.38;;;13.10;nan
28797;BME280;24974;54.444;18.560;2023-05-07T06:41:20;102458.69;;;13.04;nan
28797;BME280;24974;54.444;18.560;2023-05-07T06:43:52;102463.47;;;13.48;nan
28797;BME280;24974;54.444;18.560;2023-05-07T06:46:31;102466.28;;;13.37;nan
28797;BME280;24974;54.444;18.560;2023-05-07T06:49:02;102456.97;;;14.02;nan
28797;BME280;24974;54.444;18.560;2023-05-07T06:51:33;102463.19;;;13.49;nan
28797;BME280;24974;54.444;18.560;2023-05-07T06:54:07;102468.59;;;13.64;nan
28797;BME280;24974;54.444;18.560;2023-05-07T06:56:40;102471.03;;;13.27;nan
28797;BME280;24974;54.444;18.560;2023-05-07T06:59:12;102470.16;;;13.76;nan
28797;BME280;24974;54.444;18.560;2023-05-07T07:01:45;102472.13;;;13.70;nan
28797;BME280;24974;54.444;18.560;2023-05-07T07:04:16;102474.94;;;13.15;nan
28797;BME280;24974;54.444;18.560;2023-05-07T07:06:52;102473.84;;;13.61;nan
28797;BME280;24974;54.444;18.560;2023-05-07T07:09:23;102473.06;;;13.55;nan
28797;BME280;24974;54.444;18.560;2023-05-07T07:11:56;102471.50;;;13.39;nan
28797;BME280;24974;54.444;18.560;2023-05-07T07:14:27;102474.75;;;13.51;nan
28797;BME280;24974;54.444;18.560;2023-05-07T07:16:59;102484.63;;;13.62;nan
28797;BME280;24974;54.444;18.560;2023-05-07T07:19:29;102477.94;;;13.74;nan
28797;BME280;24974;54.444;18.560;2023-05-07T07:22:01;102483.50;;;14.03;nan
28797;BME280;24974;54.444;18.560;2023-05-07T07:24:32;102481.69;;;13.88;nan
28797;BME280;24974;54.444;18.560;2023-05-07T07:27:07;102480.69;;;14.08;nan
28797;BME280;24974;54.444;18.560;2023-05-07T07:29:39;102486.91;;;13.50;nan
28797;BME280;24974;54.444;18.560;2023-05-07T07:32:10;102487.41;;;14.31;nan
28797;BME280;24974;54.444;18.560;2023-05-07T07:34:41;102491.81;;;14.32;nan
28797;BME280;24974;54.444;18.560;2023-05-07T07:37:13;102493.97;;;13.71;nan
28797;BME280;24974;54.444;18.560;2023-05-07T07:39:43;102496.56;;;14.26;nan
28797;BME280;24974;54.444;18.560;2023-05-07T07:42:15;102494.25;;;14.38;nan
28797;BME280;24974;54.444;18.560;2023-05-07T07:44:47;102497.88;;;14.34;nan
28797;BME280;24974;54.444;18.560;2023-05-07T07:47:21;102482.88;;;14.11;nan
28797;BME280;24974;54.444;18.560;2023-05-07T07:49:53;102496.13;;;13.80;nan
28797;BME280;24974;54.444;18.560;2023-05-07T07:52:24;102493.97;;;14.40;nan
28797;BME280;24974;54.444;18.560;2023-05-07T07:54:55;102497.50;;;13.82;nan
28797;BME280;24974;54.444;18.560;2023-05-07T07:57:26;102496.56;;;13.97;nan
28797;BME280;24974;54.444;18.560;2023-05-07T07:59:57;102496.66;;;14.16;nan
28797;BME280;24974;54.444;18.560;2023-05-07T08:02:28;102501.66;;;14.48;nan
28797;BME280;24974;54.444;18.560;2023-05-07T08:04:59;102496.94;;;14.77;nan
28797;BME280;24974;54.444;18.560;2023-05-07T08:07:30;102507.06;;;14.87;nan
28797;BME280;24974;54.444;18.560;2023-05-07T08:10:02;102499.44;;;14.98;nan
28797;BME280;24974;54.444;18.560;2023-05-07T08:12:33;102501.53;;;14.87;nan
28797;BME280;24974;54.444;18.560;2023-05-07T08:15:04;102497.03;;;14.91;nan
28797;BME280;24974;54.444;18.560;2023-05-07T08:17:35;102501.31;;;15.26;nan
28797;BME280;24974;54.444;18.560;2023-05-07T08:20:07;102501.88;;;14.22;nan
28797;BME280;24974;54.444;18.560;2023-05-07T08:22:39;102505.72;;;15.08;nan
28797;BME280;24974;54.444;18.560;2023-05-07T08:25:11;102507.69;;;14.79;nan
28797;BME280;24974;54.444;18.560;2023-05-07T08:27:42;102502.13;;;15.08;nan
28797;BME280;24974;54.444;18.560;2023-05-07T08:30:16;102510.81;;;15.20;nan
28797;BME280;24974;54.444;18.560;2023-05-07T08:32:48;102506.34;;;15.00;nan
28797;BME280;24974;54.444;18.560;2023-05-07T08:35:19;102510.81;;;14.96;nan
28797;BME280;24974;54.444;18.560;2023-05-07T08:37:50;102511.09;;;15.61;nan
28797;BME280;24974;54.444;18.560;2023-05-07T08:40:25;102512.75;;;15.62;nan
28797;BME280;24974;54.444;18.560;2023-05-07T08:42:56;102513.78;;;15.24;nan
28797;BME280;24974;54.444;18.560;2023-05-07T08:45:30;102508.09;;;14.91;nan
28797;BME280;24974;54.444;18.560;2023-05-07T08:48:07;102521.06;;;14.96;nan
28797;BME280;24974;54.444;18.560;2023-05-07T08:50:40;102517.91;;;15.88;nan
28797;BME280;24974;54.444;18.560;2023-05-07T08:53:10;102520.22;;;15.43;nan
28797;BME280;24974;54.444;18.560;2023-05-07T08:55:45;102519.84;;;16.06;nan
28797;BME280;24974;54.444;18.560;2023-05-07T08:58:16;102526.28;;;16.02;nan
28797;BME280;24974;54.444;18.560;2023-05-07T09:00:47;102526.06;;;16.17;nan
28797;BME280;24974;54.444;18.560;2023-05-07T09:03:19;102528.44;;;16.23;nan
28797;BME280;24974;54.444;18.560;2023-05-07T09:05:53;102533.13;;;15.90;nan
28797;BME280;24974;54.444;18.560;2023-05-07T09:08:26;102524.75;;;15.77;nan
28797;BME280;24974;54.444;18.560;2023-05-07T09:10:59;102534.50;;;16.26;nan
28797;BME280;24974;54.444;18.560;2023-05-07T09:13:30;102521.72;;;16.43;nan
28797;BME280;24974;54.444;18.560;2023-05-07T09:16:12;102526.19;;;16.26;nan
28797;BME280;24974;54.444;18.560;2023-05-07T09:18:45;102523.16;;;16.41;nan
28797;BME280;24974;54.444;18.560;2023-05-07T09:21:19;102516.16;;;16.43;nan
28797;BME280;24974;54.444;18.560;2023-05-07T09:23:54;102528.19;;;16.71;nan
28797;BME280;24974;54.444;18.560;2023-05-07T09:26:28;102520.06;;;16.75;nan
28797;BME280;24974;54.444;18.560;2023-05-07T09:29:00;102531.38;;;16.92;nan
28797;BME280;24974;54.444;18.560;2023-05-07T09:31:36;102527.16;;;16.81;nan
28797;BME280;24974;54.444;18.560;2023-05-07T09:34:07;102531.47;;;16.73;nan
28797;BME280;24974;54.444;18.560;2023-05-07T09:36:40;102528.19;;;16.99;nan
28797;BME280;24974;54.444;18.560;2023-05-07T09:39:12;102533.75;;;16.39;nan
28797;BME280;24974;54.444;18.560;2023-05-07T09:41:44;102533.75;;;16.71;nan
28797;BME280;24974;54.444;18.560;2023-05-07T09:44:21;102529.59;;;17.51;nan
28797;BME280;24974;54.444;18.560;2023-05-07T09:46:55;102536.44;;;17.18;nan
28797;BME280;24974;54.444;18.560;2023-05-07T09:49:37;102530.91;;;16.25;nan
28797;BME280;24974;54.444;18.560;2023-05-07T09:52:13;102528.81;;;16.82;nan
28797;BME280;24974;54.444;18.560;2023-05-07T09:54:50;102530.19;;;17.62;nan
28797;BME280;24974;54.444;18.560;2023-05-07T09:57:23;102530.75;;;17.23;nan
28797;BME280;24974;54.444;18.560;2023-05-07T09:59:59;102529.84;;;16.86;nan
28797;BME280;24974;54.444;18.560;2023-05-07T10:02:39;102526.63;;;17.98;nan
28797;BME280;24974;54.444;18.560;2023-05-07T10:05:21;102528.44;;;18.47;nan
28797;BME280;24974;54.444;18.560;2023-05-07T10:07:53;102526.66;;;18.51;nan
28797;BME280;24974;54.444;18.560;2023-05-07T10:10:27;102525.50;;;18.52;nan
28797;BME280;24974;54.444;18.560;2023-05-07T10:13:01;102527.03;;;18.36;nan
28797;BME280;24974;54.444;18.560;2023-05-07T10:15:37;102526.97;;;17.82;nan
28797;BME280;24974;54.444;18.560;2023-05-07T10:18:10;102529.50;;;17.93;nan
28797;BME280;24974;54.444;18.560;2023-05-07T10:20:44;102530.97;;;18.88;nan
28797;BME280;24974;54.444;18.560;2023-05-07T10:23:21;102536.94;;;17.97;nan
28797;BME280;24974;54.444;18.560;2023-05-07T10:25:54;102533.31;;;18.41;nan
28797;BME280;24974;54.444;18.560;2023-05-07T10:28:29;102543.34;;;20.31;nan
28797;BME280;24974;54.444;18.560;2023-05-07T10:34:14;102525.56;;;21.79;nan
28797;BME280;24974;54.444;18.560;2023-05-07T10:36:49;102523.81;;;21.54;nan
28797;BME280;24974;54.444;18.560;2023-05-07T10:39:23;102521.78;;;21.04;nan
28797;BME280;24974;54.444;18.560;2023-05-07T10:41:54;102528.91;;;21.52;nan
28797;BME280;24974;54.444;18.560;2023-05-07T10:44:29;102524.41;;;21.01;nan
28797;BME280;24974;54.444;18.560;2023-05-07T10:47:12;102524.25;;;21.35;nan
28797;BME280;24974;54.444;18.560;2023-05-07T10:52:25;102526.38;;;22.67;nan
28797;BME280;24974;54.444;18.560;2023-05-07T10:55:23;102533.59;;;21.90;nan
28797;BME280;24974;54.444;18.560;2023-05-07T10:58:25;102531.16;;;21.38;nan
28797;BME280;24974;54.444;18.560;2023-05-07T11:01:02;102528.66;;;21.66;nan
28797;BME280;24974;54.444;18.560;2023-05-07T11:06:38;102529.34;;;22.38;nan
28797;BME280;24974;54.444;18.560;2023-05-07T11:09:13;102528.66;;;22.08;nan
28797;BME280;24974;54.444;18.560;2023-05-07T11:11:55;102532.72;;;22.31;nan
28797;BME280;24974;54.444;18.560;2023-05-07T11:14:46;102532.13;;;22.25;nan
28797;BME280;24974;54.444;18.560;2023-05-07T11:17:33;102531.16;;;22.21;nan
28797;BME280;24974;54.444;18.560;2023-05-07T11:20:09;102537.09;;;22.20;nan
28797;BME280;24974;54.444;18.560;2023-05-07T11:22:47;102536.72;;;22.42;nan
28797;BME280;24974;54.444;18.560;2023-05-07T11:25:31;102536.22;;;21.65;nan
28797;BME280;24974;54.444;18.560;2023-05-07T11:28:26;102547.50;;;22.19;nan
28797;BME280;24974;54.444;18.560;2023-05-07T11:31:05;102539.63;;;23.40;nan
28797;BME280;24974;54.444;18.560;2023-05-07T11:33:37;102542.41;;;23.77;nan
28797;BME280;24974;54.444;18.560;2023-05-07T11:36:10;102534.53;;;22.60;nan
28797;BME280;24974;54.444;18.560;2023-05-07T11:38:47;102537.84;;;23.72;nan
28797;BME280;24974;54.444;18.560;2023-05-07T11:41:18;102546.06;;;23.40;nan
28797;BME280;24974;54.444;18.560;2023-05-07T11:43:57;102540.97;;;22.60;nan
28797;BME280;24974;54.444;18.560;2023-05-07T11:46:30;102541.63;;;21.70;nan
28797;BME280;24974;54.444;18.560;2023-05-07T11:49:01;102543.91;;;22.76;nan
28797;BME280;24974;54.444;18.560;2023-05-07T11:51:32;102542.91;;;21.52;nan
28797;BME280;24974;54.444;18.560;2023-05-07T11:54:06;102544.44;;;21.91;nan
28797;BME280;24974;54.444;18.560;2023-05-07T11:56:41;102537.94;;;21.78;nan
28797;BME280;24974;54.444;18.560;2023-05-07T11:59:17;102551.81;;;22.17;nan
28797;BME280;24974;54.444;18.560;2023-05-07T12:01:48;102541.47;;;21.88;nan
28797;BME280;24974;54.444;18.560;2023-05-07T12:04:19;102546.66;;;21.56;nan
28797;BME280;24974;54.444;18.560;2023-05-07T12:06:54;102543.34;;;22.38;nan
28797;BME280;24974;54.444;18.560;2023-05-07T12:09:26;102542.41;;;23.77;nan
28797;BME280;24974;54.444;18.560;2023-05-07T12:11:57;102540.47;;;23.16;nan
28797;BME280;24974;54.444;18.560;2023-05-07T12:14:33;102543.66;;;22.69;nan
28797;BME280;24974;54.444;18.560;2023-05-07T12:17:11;102543.69;;;22.24;nan
28797;BME280;24974;54.444;18.560;2023-05-07T12:19:44;102542.53;;;22.37;nan
28797;BME280;24974;54.444;18.560;2023-05-07T12:22:15;102540.53;;;22.38;nan
28797;BME280;24974;54.444;18.560;2023-05-07T12:24:56;102544.13;;;22.59;nan
28797;BME280;24974;54.444;18.560;2023-05-07T12:27:28;102552.06;;;22.24;nan
28797;BME280;24974;54.444;18.560;2023-05-07T12:29:59;102550.53;;;22.59;nan
28797;BME280;24974;54.444;18.560;2023-05-07T12:32:29;102551.81;;;22.50;nan
28797;BME280;24974;54.444;18.560;2023-05-07T12:35:00;102549.47;;;21.98;nan
28797;BME280;24974;54.444;18.560;2023-05-07T12:37:31;102549.41;;;21.86;nan
28797;BME280;24974;54.444;18.560;2023-05-07T12:40:09;102548.28;;;22.08;nan
28797;BME280;24974;54.444;18.560;2023-05-07T12:42:40;102556.22;;;21.97;nan
28797;BME280;24974;54.444;18.560;2023-05-07T12:45:15;102557.13;;;22.76;nan
28797;BME280;24974;54.444;18.560;2023-05-07T12:47:47;102561.03;;;22.50;nan
28797;BME280;24974;54.444;18.560;2023-05-07T12:50:18;102560.13;;;22.58;nan
28797;BME280;24974;54.444;18.560;2023-05-07T12:52:48;102552.13;;;21.14;nan
28797;BME280;24974;54.444;18.560;2023-05-07T12:55:19;102555.56;;;22.00;nan
28797;BME280;24974;54.444;18.560;2023-05-07T12:57:51;102555.34;;;21.25;nan
28797;BME280;24974;54.444;18.560;2023-05-07T13:00:38;102569.91;;;22.52;nan
28797;BME280;24974;54.444;18.560;2023-05-07T13:03:09;102568.16;;;22.48;nan
28797;BME280;24974;54.444;18.560;2023-05-07T13:05:40;102567.22;;;21.81;nan
28797;BME280;24974;54.444;18.560;2023-05-07T13:08:11;102562.81;;;22.55;nan
28797;BME280;24974;54.444;18.560;2023-05-07T13:10:42;102561.03;;;21.75;nan
28797;BME280;24974;54.444;18.560;2023-05-07T13:13:12;102559.69;;;21.52;nan
28797;BME280;24974;54.444;18.560;2023-05-07T13:15:43;102563.38;;;22.60;nan
28797;BME280;24974;54.444;18.560;2023-05-07T13:18:14;102556.50;;;22.58;nan
28797;BME280;24974;54.444;18.560;2023-05-07T13:20:45;102554.59;;;21.96;nan
28797;BME280;24974;54.444;18.560;2023-05-07T13:23:17;102554.19;;;21.85;nan
28797;BME280;24974;54.444;18.560;2023-05-07T13:25:49;102551.88;;;22.08;nan
28797;BME280;24974;54.444;18.560;2023-05-07T13:28:22;102556.69;;;21.57;nan
28797;BME280;24974;54.444;18.560;2023-05-07T13:30:53;102553.19;;;23.26;nan
28797;BME280;24974;54.444;18.560;2023-05-07T13:33:24;102560.97;;;21.55;nan
28797;BME280;24974;54.444;18.560;2023-05-07T13:35:55;102558.94;;;22.14;nan
28797;BME280;24974;54.444;18.560;2023-05-07T13:38:27;102551.63;;;22.34;nan
28797;BME280;24974;54.444;18.560;2023-05-07T13:40:58;102557.66;;;22.57;nan
28797;BME280;24974;54.444;18.560;2023-05-07T13:43:28;102551.09;;;22.20;nan
28797;BME280;24974;54.444;18.560;2023-05-07T13:46:00;102542.44;;;21.50;nan
28797;BME280;24974;54.444;18.560;2023-05-07T13:48:31;102546.38;;;21.19;nan
28797;BME280;24974;54.444;18.560;2023-05-07T13:51:02;102555.22;;;22.55;nan
28797;BME280;24974;54.444;18.560;2023-05-07T13:53:33;102539.69;;;22.04;nan
28797;BME280;24974;54.444;18.560;2023-05-07T13:56:04;102540.75;;;21.28;nan
28797;BME280;24974;54.444;18.560;2023-05-07T13:58:35;102544.94;;;21.64;nan
28797;BME280;24974;54.444;18.560;2023-05-07T14:01:06;102545.22;;;21.71;nan
28797;BME280;24974;54.444;18.560;2023-05-07T14:03:37;102541.81;;;21.44;nan
28797;BME280;24974;54.444;18.560;2023-05-07T14:06:10;102545.41;;;21.45;nan
28797;BME280;24974;54.444;18.560;2023-05-07T14:08:40;102544.66;;;21.36;nan
28797;BME280;24974;54.444;18.560;2023-05-07T14:11:11;102537.91;;;20.99;nan
28797;BME280;24974;54.444;18.560;2023-05-07T14:13:42;102543.78;;;21.06;nan
28797;BME280;24974;54.444;18.560;2023-05-07T14:16:13;102540.56;;;20.14;nan
28797;BME280;24974;54.444;18.560;2023-05-07T14:18:44;102550.63;;;21.17;nan
28797;BME280;24974;54.444;18.560;2023-05-07T14:21:15;102547.47;;;20.89;nan
28797;BME280;24974;54.444;18.560;2023-05-07T14:23:46;102544.69;;;20.89;nan
28797;BME280;24974;54.444;18.560;2023-05-07T14:26:17;102551.59;;;20.83;nan
28797;BME280;24974;54.444;18.560;2023-05-07T14:28:48;102552.25;;;20.88;nan
28797;BME280;24974;54.444;18.560;2023-05-07T14:31:19;102559.53;;;21.19;nan
28797;BME280;24974;54.444;18.560;2023-05-07T14:33:50;102570.13;;;20.32;nan
28797;BME280;24974;54.444;18.560;2023-05-07T14:36:22;102560.75;;;20.10;nan
28797;BME280;24974;54.444;18.560;2023-05-07T14:38:56;102556.94;;;19.06;nan
28797;BME280;24974;54.444;18.560;2023-05-07T14:41:29;102558.13;;;19.97;nan
28797;BME280;24974;54.444;18.560;2023-05-07T14:44:01;102554.16;;;17.85;nan
28797;BME280;24974;54.444;18.560;2023-05-07T14:46:34;102557.63;;;17.41;nan
28797;BME280;24974;54.444;18.560;2023-05-07T14:49:05;102557.34;;;17.93;nan
28797;BME280;24974;54.444;18.560;2023-05-07T14:51:36;102560.75;;;18.12;nan
28797;BME280;24974;54.444;18.560;2023-05-07T14:54:06;102553.38;;;17.71;nan
28797;BME280;24974;54.444;18.560;2023-05-07T14:56:37;102552.66;;;17.66;nan
28797;BME280;24974;54.444;18.560;2023-05-07T14:59:09;102561.53;;;17.26;nan
28797;BME280;24974;54.444;18.560;2023-05-07T15:01:40;102559.09;;;17.25;nan
28797;BME280;24974;54.444;18.560;2023-05-07T15:04:15;102555.47;;;17.11;nan
28797;BME280;24974;54.444;18.560;2023-05-07T15:06:47;102547.59;;;17.54;nan
28797;BME280;24974;54.444;18.560;2023-05-07T15:09:18;102556.19;;;17.44;nan
28797;BME280;24974;54.444;18.560;2023-05-07T15:11:48;102549.41;;;16.95;nan
28797;BME280;24974;54.444;18.560;2023-05-07T15:14:19;102555.97;;;17.40;nan
28797;BME280;24974;54.444;18.560;2023-05-07T15:16:52;102547.28;;;17.69;nan
28797;BME280;24974;54.444;18.560;2023-05-07T15:19:22;102553.94;;;19.42;nan
28797;BME280;24974;54.444;18.560;2023-05-07T15:21:57;102561.72;;;19.71;nan
28797;BME280;24974;54.444;18.560;2023-05-07T15:24:29;102563.53;;;18.79;nan
28797;BME280;24974;54.444;18.560;2023-05-07T15:26:59;102561.59;;;19.94;nan
28797;BME280;24974;54.444;18.560;2023-05-07T15:29:31;102570.94;;;20.06;nan
28797;BME280;24974;54.444;18.560;2023-05-07T15:32:03;102566.59;;;19.09;nan
28797;BME280;24974;54.444;18.560;2023-05-07T15:34:35;102571.06;;;20.36;nan
28797;BME280;24974;54.444;18.560;2023-05-07T15:37:06;102572.25;;;20.26;nan
28797;BME280;24974;54.444;18.560;2023-05-07T15:39:37;102570.28;;;19.92;nan
28797;BME280;24974;54.444;18.560;2023-05-07T15:42:08;102568.31;;;20.01;nan
28797;BME280;24974;54.444;18.560;2023-05-07T15:44:38;102566.00;;;18.36;nan
28797;BME280;24974;54.444;18.560;2023-05-07T15:47:10;102561.63;;;19.37;nan
28797;BME280;24974;54.444;18.560;2023-05-07T15:49:44;102561.66;;;18.97;nan
28797;BME280;24974;54.444;18.560;2023-05-07T15:52:15;102566.25;;;19.41;nan
28797;BME280;24974;54.444;18.560;2023-05-07T15:54:46;102563.03;;;19.17;nan
28797;BME280;24974;54.444;18.560;2023-05-07T15:57:17;102564.13;;;19.55;nan
28797;BME280;24974;54.444;18.560;2023-05-07T15:59:49;102570.91;;;20.41;nan
28797;BME280;24974;54.444;18.560;2023-05-07T16:02:20;102562.41;;;19.20;nan
28797;BME280;24974;54.444;18.560;2023-05-07T16:04:51;102565.56;;;18.65;nan
28797;BME280;24974;54.444;18.560;2023-05-07T16:07:22;102566.06;;;18.44;nan
28797;BME280;24974;54.444;18.560;2023-05-07T16:09:53;102574.22;;;20.00;nan
28797;BME280;24974;54.444;18.560;2023-05-07T16:12:23;102577.31;;;19.72;nan
28797;BME280;24974;54.444;18.560;2023-05-07T16:14:54;102565.97;;;20.64;nan
28797;BME280;24974;54.444;18.560;2023-05-07T16:17:25;102558.84;;;19.37;nan
28797;BME280;24974;54.444;18.560;2023-05-07T16:19:56;102565.84;;;19.82;nan
28797;BME280;24974;54.444;18.560;2023-05-07T16:22:28;102556.81;;;20.20;nan
28797;BME280;24974;54.444;18.560;2023-05-07T16:24:59;102564.84;;;20.39;nan
28797;BME280;24974;54.444;18.560;2023-05-07T16:27:31;102558.59;;;20.33;nan
28797;BME280;24974;54.444;18.560;2023-05-07T16:30:01;102557.00;;;20.06;nan
28797;BME280;24974;54.444;18.560;2023-05-07T16:32:32;102549.69;;;18.65;nan
28797;BME280;24974;54.444;18.560;2023-05-07T16:35:04;102545.13;;;17.66;nan
28797;BME280;24974;54.444;18.560;2023-05-07T16:37:39;102551.63;;;17.61;nan
28797;BME280;24974;54.444;18.560;2023-05-07T16:40:10;102547.34;;;17.92;nan
28797;BME280;24974;54.444;18.560;2023-05-07T16:42:42;102557.41;;;17.38;nan
28797;BME280;24974;54.444;18.560;2023-05-07T16:45:12;102551.53;;;17.39;nan
28797;BME280;24974;54.444;18.560;2023-05-07T16:47:43;102552.53;;;16.74;nan
28797;BME280;24974;54.444;18.560;2023-05-07T16:50:15;102555.69;;;16.21;nan
28797;BME280;24974;54.444;18.560;2023-05-07T16:52:45;102564.50;;;16.56;nan
28797;BME280;24974;54.444;18.560;2023-05-07T16:55:16;102556.81;;;16.67;nan
28797;BME280;24974;54.444;18.560;2023-05-07T16:57:47;102563.13;;;16.72;nan
28797;BME280;24974;54.444;18.560;2023-05-07T17:00:18;102560.16;;;16.36;nan
28797;BME280;24974;54.444;18.560;2023-05-07T17:02:49;102557.78;;;16.43;nan
28797;BME280;24974;54.444;18.560;2023-05-07T17:05:20;102558.66;;;16.25;nan
28797;BME280;24974;54.444;18.560;2023-05-07T17:07:51;102561.31;;;15.79;nan
28797;BME280;24974;54.444;18.560;2023-05-07T17:10:23;102564.16;;;16.44;nan
28797;BME280;24974;54.444;18.560;2023-05-07T17:12:55;102564.38;;;16.15;nan
28797;BME280;24974;54.444;18.560;2023-05-07T17:15:25;102564.91;;;16.49;nan
28797;BME280;24974;54.444;18.560;2023-05-07T17:17:56;102570.28;;;16.08;nan
28797;BME280;24974;54.444;18.560;2023-05-07T17:20:27;102564.38;;;16.15;nan
28797;BME280;24974;54.444;18.560;2023-05-07T17:22:58;102564.16;;;16.44;nan
28797;BME280;24974;54.444;18.560;2023-05-07T17:25:31;102563.47;;;16.52;nan
28797;BME280;24974;54.444;18.560;2023-05-07T17:28:02;102562.78;;;15.71;nan
28797;BME280;24974;54.444;18.560;2023-05-07T17:30:33;102557.00;;;16.24;nan
28797;BME280;24974;54.444;18.560;2023-05-07T17:33:04;102561.84;;;16.00;nan
28797;BME280;24974;54.444;18.560;2023-05-07T17:35:35;102563.09;;;16.07;nan
28797;BME280;24974;54.444;18.560;2023-05-07T17:38:06;102563.19;;;15.83;nan